Terminal Aerodrome Forecast
Issued by NWS

Home | Current Version | Previous Version | Text Only | Print | Product List | Glossary On
Versions: 1 2 3 4 5 6 7 8 9 10 11 12 13 14
000
FTUS45 KGJT 201120
TAFMTJ
TAF
KMTJ 201120Z 2012/2112 15005KT P6SM FEW150 SCT250
     FM201700 34006KT P6SM FEW100 SCT250
     FM201900 33007KT P6SM VCSH SCT080 BKN150
     FM210300 15007KT P6SM SCT250=

USA.gov is the U.S. government's official web portal to all federal, state and local government web resources and services.